createdAt,value
2023-08-08T00:01:12.143Z,3.00
2023-08-08T00:03:38.949Z,4.82
2023-08-08T00:06:05.660Z,5.97
2023-08-08T00:08:32.454Z,4.57
2023-08-08T00:10:59.381Z,3.75
2023-08-08T00:13:26.182Z,4.32
2023-08-08T00:15:52.896Z,3.13
2023-08-08T00:18:19.660Z,3.03
2023-08-08T00:20:46.389Z,2.42
2023-08-08T00:23:13.196Z,5.97
2023-08-08T00:25:39.821Z,4.35
2023-08-08T00:28:06.899Z,3.03
2023-08-08T00:30:33.687Z,6.82
2023-08-08T00:33:00.864Z,6.22
2023-08-08T00:35:27.568Z,2.30
2023-08-08T00:37:54.246Z,3.80
2023-08-08T00:40:20.970Z,8.07
2023-08-08T00:42:47.618Z,4.68
2023-08-08T00:45:14.368Z,5.90
2023-08-08T00:47:41.295Z,6.32
2023-08-08T00:50:09.617Z,7.13
2023-08-08T00:52:38.563Z,4.07
2023-08-08T00:55:06.525Z,4.85
2023-08-08T00:57:33.709Z,7.50
2023-08-08T01:00:00.513Z,5.18
2023-08-08T01:02:27.241Z,6.90
2023-08-08T01:04:54.099Z,7.38
2023-08-08T01:07:47.323Z,5.20
2023-08-08T01:10:21.567Z,3.45
2023-08-08T01:13:05.547Z,9.80
2023-08-08T01:15:36.782Z,3.80
2023-08-08T01:18:09.439Z,4.82
2023-08-08T01:20:38.414Z,5.45
2023-08-08T01:23:18.735Z,9.60
2023-08-08T01:25:47.465Z,4.82
2023-08-08T01:28:14.349Z,5.47
2023-08-08T01:30:41.348Z,4.82
2023-08-08T01:33:08.965Z,4.68
2023-08-08T01:35:43.496Z,8.27
2023-08-08T01:38:18.452Z,3.53
2023-08-08T01:40:46.518Z,3.30
2023-08-08T01:43:16.354Z,4.75
2023-08-08T01:45:44.731Z,6.47
2023-08-08T01:48:12.306Z,5.32
2023-08-08T01:50:39.494Z,8.95
2023-08-08T01:53:06.394Z,8.07
2023-08-08T01:55:33.157Z,5.57
2023-08-08T01:57:59.835Z,5.55
2023-08-08T02:00:26.680Z,7.75
2023-08-08T02:02:54.028Z,9.00
2023-08-08T02:05:21.017Z,8.70
2023-08-08T02:07:47.641Z,5.13
2023-08-08T02:10:14.374Z,10.80
2023-08-08T02:12:41.116Z,5.57
2023-08-08T02:15:08.223Z,5.18
2023-08-08T02:17:34.977Z,7.68
2023-08-08T02:20:01.742Z,6.72
2023-08-08T02:22:28.417Z,4.50
2023-08-08T02:24:55.093Z,6.47
2023-08-08T02:27:21.708Z,7.90
2023-08-08T02:29:48.370Z,7.88
2023-08-08T02:32:15.055Z,7.50
2023-08-08T02:34:42.257Z,6.40
2023-08-08T02:37:09.695Z,3.90
2023-08-08T02:39:36.406Z,4.68
2023-08-08T02:42:03.242Z,3.92
2023-08-08T02:44:29.955Z,7.93
2023-08-08T02:46:56.600Z,7.85
2023-08-08T02:49:23.255Z,8.45
2023-08-08T02:51:49.975Z,7.03
2023-08-08T02:54:16.680Z,9.07
2023-08-08T02:56:43.346Z,4.47
2023-08-08T02:59:10.032Z,3.45
2023-08-08T03:01:40.357Z,4.32
2023-08-08T03:04:07.583Z,7.40
2023-08-08T03:06:34.334Z,3.85
2023-08-08T03:09:01.054Z,4.57
2023-08-08T03:11:27.700Z,4.72
2023-08-08T03:13:54.410Z,7.07
2023-08-08T03:16:21.494Z,5.47
2023-08-08T03:18:48.363Z,4.53
2023-08-08T03:21:15.150Z,4.82
2023-08-08T03:23:41.863Z,2.95
2023-08-08T03:26:08.552Z,7.05
2023-08-08T03:28:35.243Z,3.60
2023-08-08T03:31:03.343Z,3.83
2023-08-08T03:33:30.290Z,3.17
2023-08-08T03:35:57.004Z,3.95
2023-08-08T03:38:23.668Z,6.60
2023-08-08T03:40:50.440Z,4.63
2023-08-08T03:43:17.171Z,6.22
2023-08-08T03:45:45.447Z,3.80
2023-08-08T03:48:12.192Z,2.75
2023-08-08T03:50:39.011Z,8.63
2023-08-08T03:53:05.962Z,6.53
2023-08-08T03:55:34.410Z,3.58
2023-08-08T03:58:01.231Z,7.68
2023-08-08T04:00:27.998Z,63.92
2023-08-08T04:02:54.775Z,29.98
2023-08-08T04:05:21.582Z,23.55
2023-08-08T04:07:48.275Z,43.45
2023-08-08T04:10:15.059Z,110.50
2023-08-08T04:12:41.705Z,137.10
2023-08-08T04:15:09.066Z,52.50
2023-08-08T04:17:35.849Z,166.80
2023-08-08T04:20:02.886Z,29.70
2023-08-08T04:22:29.816Z,96.05
2023-08-08T04:24:56.522Z,50.85
2023-08-08T04:27:23.229Z,13.43
2023-08-08T04:29:49.979Z,64.00
2023-08-08T04:32:17.077Z,72.40
2023-08-08T04:34:43.765Z,45.92
2023-08-08T04:37:10.551Z,44.22
2023-08-08T04:39:37.175Z,49.25
2023-08-08T04:42:04.397Z,61.72
2023-08-08T04:44:31.308Z,29.92
2023-08-08T04:46:58.798Z,16.67
2023-08-08T04:49:25.538Z,9.50
2023-08-08T04:51:52.300Z,11.52
2023-08-08T04:54:18.988Z,7.45
2023-08-08T04:56:45.727Z,13.93
2023-08-08T04:59:12.618Z,8.60
2023-08-08T05:01:39.421Z,10.50
2023-08-08T05:04:06.408Z,14.60
2023-08-08T05:06:33.263Z,10.65
2023-08-08T05:09:00.028Z,10.10
2023-08-08T05:11:26.762Z,7.18
2023-08-08T05:13:53.694Z,18.75
2023-08-08T05:16:21.720Z,6.57
2023-08-08T05:18:48.479Z,10.57
2023-08-08T05:21:15.561Z,11.20
2023-08-08T05:23:42.797Z,40.28
2023-08-08T05:26:09.806Z,7.03
2023-08-08T05:28:36.697Z,7.88
2023-08-08T05:31:03.991Z,10.00
2023-08-08T05:33:31.541Z,7.65
2023-08-08T05:36:00.579Z,19.15
2023-08-08T05:38:27.418Z,22.17
2023-08-08T05:40:54.101Z,20.45
2023-08-08T05:43:22.613Z,18.02
2023-08-08T05:45:49.398Z,19.00
2023-08-08T05:48:16.106Z,23.77
2023-08-08T05:50:42.938Z,19.50
2023-08-08T05:53:09.660Z,15.75
2023-08-08T05:55:36.373Z,10.55
2023-08-08T05:58:03.375Z,13.90
2023-08-08T06:05:06.378Z,17.73
2023-08-08T06:07:33.032Z,31.05
2023-08-08T06:14:43.491Z,29.70
2023-08-08T06:17:10.685Z,23.80
2023-08-08T06:19:37.480Z,12.90
2023-08-08T06:22:04.580Z,22.27
2023-08-08T06:24:32.944Z,12.95
2023-08-08T06:27:00.579Z,6.47
2023-08-08T06:29:27.993Z,4.65
2023-08-08T06:31:54.784Z,8.30
2023-08-08T06:34:21.497Z,30.52
2023-08-08T06:36:48.376Z,179.13
2023-08-08T06:39:15.195Z,385.48
2023-08-08T06:41:42.377Z,290.15
2023-08-08T06:44:09.723Z,210.85
2023-08-08T06:46:36.467Z,114.25
2023-08-08T06:49:03.205Z,241.60
2023-08-08T06:51:29.914Z,327.48
2023-08-08T06:53:56.955Z,409.70
2023-08-08T06:56:23.845Z,490.85
2023-08-08T06:58:50.525Z,288.15
2023-08-08T07:01:17.498Z,205.55
2023-08-08T07:03:44.651Z,343.17
2023-08-08T07:06:11.952Z,137.57
2023-08-08T07:08:40.478Z,18.75
2023-08-08T07:11:07.700Z,111.72
2023-08-08T07:13:34.585Z,77.68
2023-08-08T07:16:02.073Z,39.08
2023-08-08T07:18:29.352Z,134.77
2023-08-08T07:20:57.625Z,52.05
2023-08-08T07:23:24.817Z,41.65
2023-08-08T07:25:51.922Z,50.97
2023-08-08T07:28:19.025Z,30.13
2023-08-08T07:30:45.872Z,34.35
2023-08-08T07:33:12.768Z,10.15
2023-08-08T07:35:39.479Z,113.53
2023-08-08T07:38:06.317Z,37.03
2023-08-08T07:40:33.174Z,37.45
2023-08-08T07:42:59.960Z,13.98
2023-08-08T07:45:26.752Z,8.25
2023-08-08T07:47:53.746Z,144.32
2023-08-08T07:50:20.576Z,8.00
2023-08-08T07:52:47.308Z,7.50
2023-08-08T07:55:14.034Z,3.45
2023-08-08T07:57:40.768Z,6.32
2023-08-08T08:00:12.644Z,4.75
2023-08-08T08:02:43.223Z,5.43
2023-08-08T08:05:10.734Z,10.77
2023-08-08T08:07:38.958Z,4.72
2023-08-08T08:10:10.259Z,4.50
2023-08-08T08:12:38.038Z,4.00
2023-08-08T08:15:06.056Z,15.73
2023-08-08T08:17:33.288Z,8.82
2023-08-08T08:20:00.705Z,6.68
2023-08-08T08:22:27.683Z,8.55
2023-08-08T08:24:54.704Z,7.63
2023-08-08T08:27:21.464Z,10.30
2023-08-08T08:29:48.231Z,8.43
2023-08-08T08:32:15.108Z,7.55
2023-08-08T08:34:42.103Z,10.55
2023-08-08T08:37:09.195Z,4.72
2023-08-08T08:39:36.000Z,4.05
2023-08-08T08:42:08.393Z,11.05
2023-08-08T08:44:37.152Z,8.38
2023-08-08T08:47:11.564Z,5.70
2023-08-08T08:49:40.522Z,6.30
2023-08-08T08:52:07.430Z,5.55
2023-08-08T08:54:34.361Z,8.48
2023-08-08T08:57:01.210Z,4.90
2023-08-08T08:59:28.013Z,10.75
2023-08-08T09:01:56.526Z,7.15
2023-08-08T09:04:25.008Z,4.43
2023-08-08T09:06:53.105Z,4.47
2023-08-08T09:09:22.610Z,11.90
2023-08-08T09:11:51.900Z,11.90
2023-08-08T09:14:27.176Z,3.78
2023-08-08T09:16:54.768Z,11.13
2023-08-08T09:19:23.164Z,4.53
2023-08-08T09:21:52.146Z,11.23
2023-08-08T09:24:20.065Z,11.18
2023-08-08T09:26:46.813Z,10.55
2023-08-08T09:29:15.993Z,7.97
2023-08-08T09:31:43.228Z,9.80
2023-08-08T09:34:10.138Z,5.60
2023-08-08T09:36:37.919Z,3.67
2023-08-08T09:39:06.020Z,6.18
2023-08-08T09:41:33.286Z,4.82
2023-08-08T09:44:01.769Z,8.35
2023-08-08T09:46:32.777Z,12.85
2023-08-08T09:49:00.318Z,34.47
2023-08-08T09:51:28.335Z,124.90
2023-08-08T09:53:56.261Z,243.18
2023-08-08T09:56:25.589Z,489.50
2023-08-08T09:58:54.122Z,414.65
2023-08-08T10:01:22.570Z,281.40
2023-08-08T10:03:53.840Z,625.53
2023-08-08T10:06:20.696Z,376.42
2023-08-08T10:08:48.158Z,133.93
2023-08-08T10:11:15.843Z,365.15
2023-08-08T10:13:51.654Z,326.52
2023-08-08T10:16:19.645Z,408.85
2023-08-08T10:18:58.199Z,345.27
2023-08-08T10:21:26.073Z,134.90
2023-08-08T10:24:10.744Z,229.20
2023-08-08T10:27:01.143Z,251.38
2023-08-08T10:29:31.100Z,214.05
2023-08-08T10:32:07.482Z,54.20
2023-08-08T10:37:55.428Z,11.82
2023-08-08T10:40:22.495Z,5.32
2023-08-08T10:42:49.183Z,8.50
2023-08-08T10:45:17.926Z,7.70
2023-08-08T10:47:46.440Z,7.38
2023-08-08T10:50:26.547Z,8.82
2023-08-08T10:52:57.988Z,7.85
2023-08-08T10:55:36.992Z,5.45
2023-08-08T10:58:16.720Z,3.08
2023-08-08T11:00:43.871Z,4.40
2023-08-08T11:03:11.096Z,5.15
2023-08-08T11:05:39.544Z,7.68
2023-08-08T11:08:08.539Z,6.40
2023-08-08T11:10:40.787Z,4.70
2023-08-08T11:13:09.435Z,8.27
2023-08-08T11:15:38.144Z,5.07
2023-08-08T11:18:06.714Z,3.55
2023-08-08T11:20:36.384Z,4.57
2023-08-08T11:23:06.826Z,3.47
2023-08-08T11:25:33.727Z,6.82
2023-08-08T11:28:00.635Z,3.03
2023-08-08T11:30:34.790Z,2.75
2023-08-08T11:35:32.625Z,10.05
2023-08-08T11:38:00.750Z,3.60
2023-08-08T11:40:30.665Z,4.47
2023-08-08T11:42:58.869Z,18.45
2023-08-08T11:45:25.877Z,2.70
2023-08-08T11:47:56.085Z,8.48
2023-08-08T11:50:26.442Z,5.38
2023-08-08T11:52:55.721Z,5.78
2023-08-08T11:55:28.980Z,8.15
2023-08-08T11:58:03.024Z,9.65
2023-08-08T12:00:32.085Z,6.10
2023-08-08T12:03:01.661Z,3.28
2023-08-08T12:05:29.656Z,10.18
2023-08-08T12:08:12.393Z,48.70
2023-08-08T12:10:39.293Z,4.63
2023-08-08T12:13:08.256Z,79.68
2023-08-08T12:15:36.966Z,82.10
2023-08-08T12:18:04.681Z,458.17
2023-08-08T12:20:33.120Z,458.90
2023-08-08T12:23:00.631Z,367.15
2023-08-08T12:25:27.641Z,136.93
2023-08-08T12:27:54.479Z,211.35
2023-08-08T12:30:21.369Z,395.02
2023-08-08T12:32:48.139Z,415.88
2023-08-08T12:35:17.286Z,588.53
2023-08-08T12:37:44.041Z,58.53
2023-08-08T12:40:11.566Z,57.00
2023-08-08T12:42:38.263Z,44.10
2023-08-08T12:45:07.276Z,16.58
2023-08-08T12:47:37.829Z,28.70
2023-08-08T12:50:09.093Z,18.80
2023-08-08T12:52:36.881Z,13.00
2023-08-08T12:55:04.122Z,8.02
2023-08-08T12:57:30.901Z,10.45
2023-08-08T12:59:57.561Z,5.25
2023-08-08T13:02:24.297Z,12.15
2023-08-08T13:04:51.088Z,6.72
2023-08-08T13:07:17.982Z,4.38
2023-08-08T13:09:44.733Z,4.22
2023-08-08T13:12:11.628Z,4.80
2023-08-08T13:14:38.247Z,21.75
2023-08-08T13:17:05.385Z,11.63
2023-08-08T13:19:33.009Z,3.20
2023-08-08T13:22:00.615Z,4.63
2023-08-08T13:24:27.508Z,6.75
2023-08-08T13:26:54.242Z,5.70
2023-08-08T13:29:20.968Z,3.15
2023-08-08T13:31:47.654Z,8.15
2023-08-08T13:34:14.410Z,4.60
2023-08-08T13:36:41.521Z,4.88
2023-08-08T13:39:10.522Z,3.00
2023-08-08T13:41:37.332Z,10.63
2023-08-08T13:44:04.455Z,3.30
2023-08-08T13:46:31.218Z,8.10
2023-08-08T13:48:57.896Z,2.70
2023-08-08T13:51:24.725Z,10.15
2023-08-08T13:53:51.417Z,11.50
2023-08-08T13:56:18.886Z,3.80
2023-08-08T13:58:45.615Z,3.53
2023-08-08T14:01:12.470Z,3.88
2023-08-08T14:03:39.419Z,2.83
2023-08-08T14:06:07.266Z,4.18
2023-08-08T14:08:34.043Z,3.88
2023-08-08T14:11:00.802Z,4.88
2023-08-08T14:13:27.598Z,4.22
2023-08-08T14:15:54.331Z,5.28
2023-08-08T14:18:21.037Z,3.13
2023-08-08T14:20:47.887Z,7.10
2023-08-08T14:23:14.601Z,2.88
2023-08-08T14:25:43.115Z,4.18
2023-08-08T14:28:11.882Z,5.15
2023-08-08T14:30:38.670Z,3.40
2023-08-08T14:33:05.489Z,5.18
2023-08-08T14:35:32.698Z,4.10
2023-08-08T14:37:59.359Z,4.65
2023-08-08T14:40:26.806Z,2.92
2023-08-08T14:42:56.231Z,6.40
2023-08-08T14:45:23.374Z,3.20
2023-08-08T14:47:50.094Z,4.90
2023-08-08T14:50:18.138Z,3.67
2023-08-08T14:52:47.400Z,5.65
2023-08-08T14:55:14.264Z,6.80
2023-08-08T14:57:41.143Z,6.10
2023-08-08T15:00:10.446Z,4.40
2023-08-08T15:02:37.220Z,7.95
2023-08-08T15:05:04.294Z,4.65
2023-08-08T15:07:31.094Z,2.50
2023-08-08T15:09:57.789Z,3.42
2023-08-08T15:12:24.454Z,2.72
2023-08-08T15:14:52.010Z,3.92
2023-08-08T15:17:19.857Z,4.82
2023-08-08T15:19:46.766Z,3.80
2023-08-08T15:22:13.490Z,4.65
2023-08-08T15:24:40.190Z,4.63
2023-08-08T15:27:07.500Z,3.90
2023-08-08T15:29:34.299Z,6.30
2023-08-08T15:32:00.983Z,4.25
2023-08-08T15:34:27.696Z,2.28
2023-08-08T15:36:55.240Z,7.60
2023-08-08T15:39:22.353Z,8.32
2023-08-08T15:41:49.080Z,3.92
2023-08-08T15:44:15.801Z,42.05
2023-08-08T15:46:42.501Z,3.20
2023-08-08T15:49:09.331Z,6.88
2023-08-08T15:51:36.032Z,5.15
2023-08-08T15:54:04.460Z,3.38
2023-08-08T15:56:31.957Z,3.45
2023-08-08T15:59:01.561Z,4.45
2023-08-08T16:01:28.262Z,4.07
2023-08-08T16:03:57.136Z,17.15
2023-08-08T16:06:24.438Z,3.17
2023-08-08T16:08:53.566Z,5.25
2023-08-08T16:11:20.251Z,7.22
2023-08-08T16:13:47.582Z,4.18
2023-08-08T16:16:14.558Z,4.80
2023-08-08T16:18:41.287Z,5.13
2023-08-08T16:21:08.253Z,4.05
2023-08-08T16:23:34.938Z,4.63
2023-08-08T16:26:01.646Z,4.65
2023-08-08T16:28:29.884Z,4.28
2023-08-08T16:30:57.516Z,3.72
2023-08-08T16:33:24.313Z,4.93
2023-08-08T16:35:51.004Z,7.07
2023-08-08T16:38:18.687Z,5.00
2023-08-08T16:40:45.681Z,6.18
2023-08-08T16:43:12.516Z,3.42
2023-08-08T16:45:39.952Z,5.80
2023-08-08T16:48:07.278Z,5.30
2023-08-08T16:50:34.285Z,5.95
2023-08-08T16:53:01.484Z,5.18
2023-08-08T16:55:28.191Z,4.07
2023-08-08T16:57:54.960Z,5.60
2023-08-08T17:00:23.107Z,5.03
2023-08-08T17:02:49.901Z,4.85
2023-08-08T17:05:16.856Z,9.65
2023-08-08T17:07:43.535Z,4.05
2023-08-08T17:10:10.985Z,7.72
2023-08-08T17:12:37.725Z,5.07
2023-08-08T17:15:05.261Z,7.20
2023-08-08T17:17:32.140Z,6.18
2023-08-08T17:19:58.883Z,6.70
2023-08-08T17:22:25.590Z,7.07
2023-08-08T17:24:52.397Z,5.65
2023-08-08T17:27:19.112Z,5.45
2023-08-08T17:29:45.905Z,3.85
2023-08-08T17:32:12.623Z,6.55
2023-08-08T17:34:39.276Z,227.80
2023-08-08T17:37:06.014Z,530.75
2023-08-08T17:39:32.675Z,165.23
2023-08-08T17:41:59.622Z,584.80
2023-08-08T17:44:26.608Z,613.97
2023-08-08T17:46:54.449Z,66.28
2023-08-08T17:49:22.246Z,616.72
2023-08-08T17:51:51.174Z,766.08
2023-08-08T17:54:17.865Z,245.32
2023-08-08T17:56:44.545Z,215.18
2023-08-08T17:59:11.240Z,377.40
2023-08-08T18:01:38.123Z,526.25
2023-08-08T18:04:05.473Z,762.17
2023-08-08T18:06:32.444Z,198.55
2023-08-08T18:08:59.136Z,136.85
2023-08-08T18:11:25.835Z,58.88
2023-08-08T18:13:52.535Z,11.88
2023-08-08T18:16:19.336Z,9.13
2023-08-08T18:18:46.028Z,10.13
2023-08-08T18:21:13.130Z,14.35
2023-08-08T18:23:39.918Z,6.30
2023-08-08T18:26:06.836Z,7.43
2023-08-08T18:28:33.570Z,4.88
2023-08-08T18:31:00.318Z,7.32
2023-08-08T18:33:27.363Z,5.93
2023-08-08T18:35:54.106Z,6.93
2023-08-08T18:38:20.820Z,4.55
2023-08-08T18:40:47.586Z,5.07
2023-08-08T18:43:14.259Z,3.25
2023-08-08T18:45:40.968Z,4.10
2023-08-08T18:48:07.910Z,5.70
2023-08-08T18:50:34.773Z,6.03
2023-08-08T18:53:01.495Z,4.65
2023-08-08T18:55:29.359Z,3.63
2023-08-08T18:57:56.168Z,4.47
2023-08-08T19:00:22.937Z,6.15
2023-08-08T19:02:49.618Z,12.57
2023-08-08T19:05:16.464Z,5.05
2023-08-08T19:07:43.688Z,6.30
2023-08-08T19:10:11.303Z,3.50
2023-08-08T19:12:37.988Z,3.30
2023-08-08T19:15:05.613Z,5.18
2023-08-08T19:17:41.809Z,4.75
2023-08-08T19:20:16.516Z,3.28
2023-08-08T19:22:43.292Z,3.08
2023-08-08T19:25:10.091Z,5.53
2023-08-08T19:27:36.847Z,2.95
2023-08-08T19:30:04.186Z,7.22
2023-08-08T19:32:30.922Z,4.00
2023-08-08T19:34:57.643Z,3.45
2023-08-08T19:37:24.994Z,5.78
2023-08-08T19:39:51.811Z,3.65
2023-08-08T19:42:18.528Z,7.93
2023-08-08T19:44:47.212Z,6.72
2023-08-08T19:47:13.990Z,2.65
2023-08-08T19:49:40.752Z,6.53
2023-08-08T19:52:07.811Z,4.07
2023-08-08T19:54:34.504Z,4.68
2023-08-08T19:57:01.469Z,4.97
2023-08-08T19:59:28.349Z,7.55
2023-08-08T20:01:55.141Z,5.78
2023-08-08T20:04:21.816Z,5.88
2023-08-08T20:06:48.495Z,5.97
2023-08-08T20:09:15.506Z,4.80
2023-08-08T20:11:42.632Z,6.45
2023-08-08T20:14:10.909Z,8.63
2023-08-08T20:16:38.012Z,3.63
2023-08-08T20:19:05.208Z,6.25
2023-08-08T20:21:32.473Z,3.33
2023-08-08T20:23:59.506Z,2.90
2023-08-08T20:26:26.678Z,3.38
2023-08-08T20:28:53.368Z,5.18
2023-08-08T20:31:20.141Z,3.25
2023-08-08T20:33:46.901Z,6.53
2023-08-08T20:36:15.041Z,4.57
2023-08-08T20:38:42.276Z,4.70
2023-08-08T20:41:08.964Z,4.38
2023-08-08T20:43:35.668Z,4.05
2023-08-08T20:46:02.377Z,7.30
2023-08-08T20:48:29.971Z,4.82
2023-08-08T20:50:56.664Z,3.88
2023-08-08T20:53:23.282Z,3.97
2023-08-08T20:55:50.059Z,3.67
2023-08-08T20:58:16.949Z,4.70
2023-08-08T21:00:43.734Z,3.08
2023-08-08T21:03:10.441Z,5.35
2023-08-08T21:05:37.140Z,3.17
2023-08-08T21:08:04.733Z,5.03
2023-08-08T21:10:31.684Z,4.95
2023-08-08T21:12:58.701Z,4.85
2023-08-08T21:15:25.344Z,3.35
2023-08-08T21:17:52.168Z,2.60
2023-08-08T21:20:19.263Z,7.30
2023-08-08T21:22:46.554Z,5.57
2023-08-08T21:25:14.644Z,5.80
2023-08-08T21:27:41.846Z,3.25
2023-08-08T21:30:09.259Z,5.28
2023-08-08T21:32:36.865Z,6.80
2023-08-08T21:35:04.388Z,5.50
2023-08-08T21:37:31.265Z,9.00
2023-08-08T21:39:58.114Z,7.05
2023-08-08T21:42:25.167Z,3.47
2023-08-08T21:44:57.514Z,3.80
2023-08-08T21:47:24.305Z,4.28
2023-08-08T21:49:51.129Z,2.60
2023-08-08T21:52:17.770Z,4.28
2023-08-08T21:54:44.477Z,3.03
2023-08-08T21:57:11.192Z,4.35
2023-08-08T21:59:38.091Z,5.00
2023-08-08T22:02:05.377Z,6.80
2023-08-08T22:04:33.187Z,2.40
2023-08-08T22:07:01.031Z,8.55
2023-08-08T22:09:27.999Z,6.32
2023-08-08T22:11:55.176Z,3.33
2023-08-08T22:14:21.918Z,11.35
2023-08-08T22:16:49.170Z,2.88
2023-08-08T22:19:16.051Z,2.22
2023-08-08T22:21:42.693Z,2.35
2023-08-08T22:24:09.416Z,4.07
2023-08-08T22:26:36.117Z,4.53
2023-08-08T22:29:02.823Z,4.20
2023-08-08T22:31:29.592Z,3.63
2023-08-08T22:33:56.228Z,3.95
2023-08-08T22:36:22.896Z,4.22
2023-08-08T22:38:49.657Z,2.20
2023-08-08T22:41:17.673Z,3.63
2023-08-08T22:43:45.688Z,7.28
2023-08-08T22:46:12.443Z,4.35
2023-08-08T22:48:39.175Z,2.65
2023-08-08T22:51:05.815Z,2.38
2023-08-08T22:53:32.581Z,3.92
2023-08-08T22:55:59.228Z,3.13
2023-08-08T22:58:26.104Z,3.30
2023-08-08T23:00:52.757Z,3.78
2023-08-08T23:03:19.468Z,2.80
2023-08-08T23:05:46.160Z,2.17
2023-08-08T23:08:13.007Z,3.97
2023-08-08T23:10:39.770Z,4.43
2023-08-08T23:13:06.440Z,5.85
2023-08-08T23:15:33.216Z,3.40
2023-08-08T23:17:59.911Z,3.83
2023-08-08T23:20:26.857Z,8.32
2023-08-08T23:22:53.528Z,3.13
2023-08-08T23:25:24.002Z,4.47
2023-08-08T23:27:50.834Z,3.65
2023-08-08T23:30:17.569Z,2.58
2023-08-08T23:32:46.786Z,3.70
2023-08-08T23:35:21.024Z,4.25
2023-08-08T23:37:47.667Z,3.10
2023-08-08T23:40:16.481Z,3.45
2023-08-08T23:42:43.236Z,3.58
2023-08-08T23:45:12.059Z,3.30
2023-08-08T23:47:39.850Z,2.50
2023-08-08T23:50:07.560Z,2.78
2023-08-08T23:52:34.219Z,3.05
2023-08-08T23:55:01.146Z,5.18
2023-08-08T23:57:27.767Z,3.17
2023-08-08T23:59:54.512Z,3.53
